3O1 weather

Gustine Airport
Gustine, California, United States

Public forecast

Using degrees Fahrenheit for public forecast. Weather courtesy of forecast.io.

Closest aviation weather report (METAR) to Gustine Airport

Closest report is Castle Airport, 20.1 nm (37.3 km) ENE. Retrieved 2019/10/18 22:45 UTC (34 minutes ago):

KMER 182245Z 31006KT 10SM SKC 26/07 A3001

Closest aviation forecast (TAF) to Gustine Airport

Closest forecast is Castle Airport, 20.1 nm (37.3 km) ENE. Retrieved 2019/10/18 18:25 UTC (5 hours ago):

TAF KMER 181720Z 1818/1918 32009KT P6SM SCT200 AMD NOT SKED TAF LIMC 181700Z 1818/1924 VRB05KT 8000 RA SCT020 BKN050 TEMPO 1900/1912 4000 SHRA